VLG2QU LEPA-LEBL
Flight info
| Callsign | VLG2QU |
|---|---|
| Flight time | 0h 45m |
| Altitude | 18000 |
| Route | ESPOR L2 NEPAL |
| Aircraft | A320/M-SDE3FGHIRWY/LB1 |
Departure
| Time | 2026-05-05 16:53 |
|---|---|
| Airport | Palma de Mallorca Airport (LEPA) |
Arrival
| Time | 2026-05-05 17:38 |
|---|---|
| Airport | Josep Tarradellas Barcelona-El Prat Airport (LEBL) |
| Time | Latitude | Longitude | Altitude | Speed | Heading |
|---|---|---|---|---|---|
| 2026-05-05 16:28 | 39.54576 | 2.73370 | 33 ft | 0 kts | 340° |
| 2026-05-05 16:44 | 39.54556 | 2.73379 | 33 ft | 4 kts | 345° |
| 2026-05-05 16:44 | 39.54530 | 2.73384 | 33 ft | 4 kts | 17° |
| 2026-05-05 16:44 | 39.54517 | 2.73374 | 32 ft | 0 kts | 58° |
| 2026-05-05 16:46 | 39.54552 | 2.73448 | 33 ft | 17 kts | 58° |
| 2026-05-05 16:46 | 39.54607 | 2.73565 | 32 ft | 13 kts | 59° |
| 2026-05-05 16:47 | 39.54655 | 2.73666 | 31 ft | 13 kts | 58° |
| 2026-05-05 16:47 | 39.54682 | 2.73722 | 31 ft | 0 kts | 58° |
| 2026-05-05 16:47 | 39.54708 | 2.73778 | 31 ft | 18 kts | 59° |
| 2026-05-05 16:48 | 39.54792 | 2.73951 | 30 ft | 21 kts | 58° |
| 2026-05-05 16:48 | 39.54865 | 2.73982 | 29 ft | 11 kts | 335° |
| 2026-05-05 16:48 | 39.54929 | 2.73976 | 28 ft | 9 kts | 41° |
| 2026-05-05 16:48 | 39.54973 | 2.74016 | 28 ft | 5 kts | 333° |
| 2026-05-05 16:49 | 39.55038 | 2.73957 | 27 ft | 21 kts | 326° |
| 2026-05-05 16:49 | 39.55174 | 2.73851 | 28 ft | 24 kts | 328° |
| 2026-05-05 16:49 | 39.55324 | 2.73730 | 22 ft | 26 kts | 329° |
| 2026-05-05 16:49 | 39.55479 | 2.73609 | 20 ft | 27 kts | 329° |
| 2026-05-05 16:50 | 39.55621 | 2.73509 | 19 ft | 14 kts | 351° |
| 2026-05-05 16:50 | 39.55687 | 2.73574 | 19 ft | 12 kts | 57° |
| 2026-05-05 16:50 | 39.55730 | 2.73661 | 19 ft | 11 kts | 57° |
| 2026-05-05 16:50 | 39.55772 | 2.73749 | 19 ft | 17 kts | 58° |
| 2026-05-05 16:51 | 39.55856 | 2.73927 | 18 ft | 19 kts | 58° |
| 2026-05-05 16:51 | 39.55922 | 2.74067 | 18 ft | 18 kts | 58° |
| 2026-05-05 16:51 | 39.55971 | 2.74170 | 18 ft | 0 kts | 58° |
| 2026-05-05 16:51 | 39.55982 | 2.74194 | 19 ft | 11 kts | 58° |
| 2026-05-05 16:52 | 39.56056 | 2.74319 | 17 ft | 19 kts | 23° |
| 2026-05-05 16:52 | 39.56166 | 2.74282 | 18 ft | 17 kts | 325° |
| 2026-05-05 16:52 | 39.56167 | 2.74153 | 18 ft | 16 kts | 240° |
| 2026-05-05 16:52 | 39.56104 | 2.74005 | 18 ft | 34 kts | 239° |
| 2026-05-05 16:53 | 39.55852 | 2.73470 | 17 ft | 101 kts | 237° |
| 2026-05-05 16:53 | 39.55388 | 2.72496 | 49 ft | 148 kts | 240° |
| 2026-05-05 16:53 | 39.54869 | 2.71368 | 723 ft | 145 kts | 237° |
| 2026-05-05 16:53 | 39.54348 | 2.70220 | 1308 ft | 152 kts | 239° |
| 2026-05-05 16:54 | 39.53846 | 2.68988 | 1908 ft | 157 kts | 239° |
| 2026-05-05 16:54 | 39.53224 | 2.67726 | 2290 ft | 177 kts | 234° |
| 2026-05-05 16:54 | 39.52476 | 2.66336 | 2656 ft | 197 kts | 234° |
| 2026-05-05 16:54 | 39.51675 | 2.64853 | 3381 ft | 204 kts | 234° |
| 2026-05-05 16:55 | 39.50865 | 2.63329 | 4196 ft | 206 kts | 235° |
| 2026-05-05 16:55 | 39.50065 | 2.61801 | 5089 ft | 205 kts | 236° |
| 2026-05-05 16:55 | 39.49268 | 2.60265 | 5917 ft | 207 kts | 236° |
| 2026-05-05 16:55 | 39.48466 | 2.58710 | 6693 ft | 208 kts | 236° |
| 2026-05-05 16:56 | 39.47656 | 2.57135 | 7484 ft | 210 kts | 236° |
| 2026-05-05 16:56 | 39.46845 | 2.55553 | 8278 ft | 212 kts | 236° |
| 2026-05-05 16:56 | 39.46030 | 2.53959 | 9084 ft | 213 kts | 236° |
| 2026-05-05 16:56 | 39.45227 | 2.52324 | 9795 ft | 222 kts | 243° |
| 2026-05-05 16:57 | 39.45019 | 2.50265 | 10085 ft | 252 kts | 278° |
| 2026-05-05 16:57 | 39.45895 | 2.48194 | 10418 ft | 285 kts | 307° |
| 2026-05-05 16:57 | 39.47425 | 2.46366 | 10683 ft | 313 kts | 316° |
| 2026-05-05 16:57 | 39.49246 | 2.44631 | 11067 ft | 332 kts | 320° |
| 2026-05-05 16:58 | 39.51175 | 2.42932 | 11756 ft | 339 kts | 321° |
| 2026-05-05 16:58 | 39.53135 | 2.41196 | 12513 ft | 342 kts | 320° |
| 2026-05-05 16:58 | 39.55181 | 2.39579 | 13251 ft | 351 kts | 331° |
| 2026-05-05 16:58 | 39.57530 | 2.38550 | 13956 ft | 358 kts | 338° |
| 2026-05-05 16:59 | 39.59923 | 2.37600 | 14628 ft | 361 kts | 338° |
| 2026-05-05 16:59 | 39.62328 | 2.36623 | 15313 ft | 364 kts | 337° |
| 2026-05-05 16:59 | 39.64753 | 2.35629 | 15977 ft | 367 kts | 336° |
| 2026-05-05 16:59 | 39.67199 | 2.34625 | 16630 ft | 370 kts | 336° |
| 2026-05-05 17:00 | 39.69669 | 2.33615 | 17263 ft | 374 kts | 336° |
| 2026-05-05 17:00 | 39.72163 | 2.32595 | 17760 ft | 378 kts | 336° |
| 2026-05-05 17:00 | 39.74667 | 2.31574 | 17881 ft | 375 kts | 336° |
| 2026-05-05 17:00 | 39.77135 | 2.30572 | 17896 ft | 370 kts | 336° |
| 2026-05-05 17:01 | 39.79585 | 2.29577 | 17904 ft | 368 kts | 336° |
| 2026-05-05 17:01 | 39.82030 | 2.28583 | 17893 ft | 368 kts | 336° |
| 2026-05-05 17:01 | 39.84472 | 2.27589 | 17893 ft | 368 kts | 336° |
| 2026-05-05 17:01 | 39.86911 | 2.26589 | 17896 ft | 367 kts | 336° |
| 2026-05-05 17:02 | 39.89350 | 2.25588 | 17896 ft | 367 kts | 336° |
| 2026-05-05 17:02 | 39.91783 | 2.24591 | 17892 ft | 367 kts | 336° |
| 2026-05-05 17:02 | 39.94228 | 2.23587 | 17892 ft | 368 kts | 336° |
| 2026-05-05 17:02 | 39.96663 | 2.22588 | 17892 ft | 368 kts | 336° |
| 2026-05-05 17:03 | 39.99076 | 2.21600 | 17898 ft | 368 kts | 336° |
| 2026-05-05 17:03 | 40.01519 | 2.20601 | 17898 ft | 368 kts | 336° |
| 2026-05-05 17:03 | 40.03963 | 2.19601 | 17902 ft | 368 kts | 336° |
| 2026-05-05 17:03 | 40.06406 | 2.18600 | 17897 ft | 368 kts | 336° |
| 2026-05-05 17:04 | 40.08843 | 2.17597 | 17906 ft | 368 kts | 336° |
| 2026-05-05 17:04 | 40.11290 | 2.16587 | 17904 ft | 368 kts | 336° |
| 2026-05-05 17:04 | 40.13726 | 2.15583 | 17899 ft | 368 kts | 336° |
| 2026-05-05 17:04 | 40.16167 | 2.14574 | 17899 ft | 368 kts | 336° |
| 2026-05-05 17:05 | 40.18607 | 2.13561 | 17906 ft | 368 kts | 336° |
| 2026-05-05 17:05 | 40.21048 | 2.12548 | 17905 ft | 368 kts | 336° |
| 2026-05-05 17:05 | 40.23490 | 2.11537 | 17890 ft | 368 kts | 336° |
| 2026-05-05 17:05 | 40.25934 | 2.10527 | 17900 ft | 368 kts | 336° |
| 2026-05-05 17:06 | 40.28380 | 2.09519 | 17893 ft | 369 kts | 336° |
| 2026-05-05 17:06 | 40.30827 | 2.08511 | 17899 ft | 369 kts | 336° |
| 2026-05-05 17:06 | 40.33275 | 2.07498 | 17892 ft | 369 kts | 336° |
| 2026-05-05 17:06 | 40.35721 | 2.06482 | 17895 ft | 369 kts | 336° |
| 2026-05-05 17:07 | 40.38174 | 2.05462 | 17896 ft | 370 kts | 336° |
| 2026-05-05 17:07 | 40.40626 | 2.04442 | 17898 ft | 370 kts | 336° |
| 2026-05-05 17:07 | 40.43073 | 2.03422 | 17900 ft | 370 kts | 336° |
| 2026-05-05 17:07 | 40.45529 | 2.02402 | 17900 ft | 370 kts | 336° |
| 2026-05-05 17:08 | 40.47992 | 2.01381 | 17874 ft | 369 kts | 336° |
| 2026-05-05 17:08 | 40.50408 | 2.00384 | 17607 ft | 361 kts | 336° |
| 2026-05-05 17:08 | 40.52779 | 1.99407 | 17276 ft | 355 kts | 336° |
| 2026-05-05 17:08 | 40.55125 | 1.98432 | 16846 ft | 353 kts | 336° |
| 2026-05-05 17:09 | 40.57432 | 1.97468 | 16422 ft | 351 kts | 336° |
| 2026-05-05 17:09 | 40.59756 | 1.96493 | 15993 ft | 350 kts | 336° |
| 2026-05-05 17:09 | 40.62074 | 1.95518 | 15567 ft | 349 kts | 336° |
| 2026-05-05 17:09 | 40.64385 | 1.94546 | 15129 ft | 348 kts | 336° |
| 2026-05-05 17:10 | 40.66723 | 1.93674 | 14716 ft | 351 kts | 345° |
| 2026-05-05 17:10 | 40.69182 | 1.93521 | 14281 ft | 358 kts | 2° |
| 2026-05-05 17:10 | 40.71620 | 1.94260 | 13833 ft | 364 kts | 19° |
| 2026-05-05 17:10 | 40.73889 | 1.95760 | 13354 ft | 365 kts | 27° |
| 2026-05-05 17:11 | 40.75366 | 1.96826 | 13048 ft | 365 kts | 27° |
| 2026-05-05 17:11 | 40.77583 | 1.98418 | 12650 ft | 361 kts | 27° |
| 2026-05-05 17:11 | 40.79761 | 1.99979 | 12512 ft | 351 kts | 26° |
| 2026-05-05 17:11 | 40.81888 | 2.01502 | 12154 ft | 347 kts | 26° |
| 2026-05-05 17:12 | 40.84001 | 2.03015 | 11629 ft | 343 kts | 26° |
| 2026-05-05 17:12 | 40.86090 | 2.04512 | 11118 ft | 340 kts | 26° |
| 2026-05-05 17:12 | 40.88162 | 2.05999 | 10595 ft | 338 kts | 26° |
| 2026-05-05 17:12 | 40.90213 | 2.07472 | 10158 ft | 332 kts | 26° |
| 2026-05-05 17:13 | 40.92194 | 2.08901 | 9803 ft | 319 kts | 26° |
| 2026-05-05 17:13 | 40.94113 | 2.10310 | 9348 ft | 311 kts | 27° |
| 2026-05-05 17:13 | 40.95999 | 2.11725 | 9229 ft | 311 kts | 27° |
| 2026-05-05 17:13 | 40.97876 | 2.13146 | 9091 ft | 310 kts | 28° |
| 2026-05-05 17:14 | 40.99743 | 2.14561 | 8975 ft | 309 kts | 28° |
| 2026-05-05 17:14 | 41.01609 | 2.15971 | 8829 ft | 308 kts | 27° |
| 2026-05-05 17:14 | 41.03474 | 2.17376 | 8716 ft | 307 kts | 27° |
| 2026-05-05 17:14 | 41.05321 | 2.18771 | 8594 ft | 306 kts | 28° |
| 2026-05-05 17:15 | 41.07166 | 2.20166 | 8460 ft | 305 kts | 28° |
| 2026-05-05 17:15 | 41.09007 | 2.21555 | 8348 ft | 304 kts | 28° |
| 2026-05-05 17:15 | 41.10841 | 2.22940 | 8217 ft | 303 kts | 28° |
| 2026-05-05 17:15 | 41.12645 | 2.24304 | 8092 ft | 302 kts | 28° |
| 2026-05-05 17:16 | 41.14493 | 2.25700 | 7977 ft | 301 kts | 28° |
| 2026-05-05 17:16 | 41.16272 | 2.27064 | 7844 ft | 301 kts | 32° |
| 2026-05-05 17:16 | 41.17895 | 2.28828 | 7719 ft | 301 kts | 46° |
| 2026-05-05 17:16 | 41.19161 | 2.31031 | 7597 ft | 300 kts | 58° |
| 2026-05-05 17:17 | 41.20289 | 2.33360 | 7467 ft | 300 kts | 57° |
| 2026-05-05 17:17 | 41.21420 | 2.35678 | 7350 ft | 299 kts | 57° |
| 2026-05-05 17:17 | 41.22556 | 2.37992 | 7220 ft | 290 kts | 57° |
| 2026-05-05 17:17 | 41.23852 | 2.39909 | 7097 ft | 278 kts | 33° |
| 2026-05-05 17:18 | 41.25567 | 2.40886 | 6976 ft | 263 kts | 6° |
| 2026-05-05 17:18 | 41.27338 | 2.40823 | 6854 ft | 252 kts | 341° |
| 2026-05-05 17:18 | 41.28946 | 2.39974 | 6728 ft | 248 kts | 331° |
| 2026-05-05 17:18 | 41.30594 | 2.39307 | 6611 ft | 252 kts | 355° |
| 2026-05-05 17:19 | 41.32304 | 2.39814 | 6486 ft | 257 kts | 29° |
| 2026-05-05 17:19 | 41.33565 | 2.41471 | 6369 ft | 258 kts | 62° |
| 2026-05-05 17:19 | 41.34331 | 2.43632 | 6247 ft | 258 kts | 67° |
| 2026-05-05 17:19 | 41.35072 | 2.45815 | 6113 ft | 259 kts | 67° |
| 2026-05-05 17:20 | 41.35808 | 2.47993 | 5996 ft | 258 kts | 67° |
| 2026-05-05 17:20 | 41.36545 | 2.50166 | 5863 ft | 257 kts | 67° |
| 2026-05-05 17:20 | 41.37287 | 2.52340 | 5750 ft | 256 kts | 66° |
| 2026-05-05 17:20 | 41.38025 | 2.54498 | 5638 ft | 256 kts | 67° |
| 2026-05-05 17:21 | 41.38759 | 2.56653 | 5464 ft | 255 kts | 66° |
| 2026-05-05 17:21 | 41.39489 | 2.58796 | 5279 ft | 254 kts | 66° |
| 2026-05-05 17:21 | 41.40257 | 2.61026 | 5126 ft | 272 kts | 66° |
| 2026-05-05 17:22 | 41.41980 | 2.65234 | 4637 ft | 251 kts | 47° |
| 2026-05-05 17:22 | 41.43361 | 2.66574 | 4173 ft | 245 kts | 18° |
| 2026-05-05 17:22 | 41.44975 | 2.66746 | 3941 ft | 225 kts | 342° |
| 2026-05-05 17:22 | 41.46363 | 2.65927 | 3778 ft | 214 kts | 316° |
| 2026-05-05 17:23 | 41.47161 | 2.64364 | 3589 ft | 201 kts | 282° |
| 2026-05-05 17:23 | 41.47419 | 2.62585 | 3431 ft | 192 kts | 275° |
| 2026-05-05 17:23 | 41.47568 | 2.60830 | 3069 ft | 191 kts | 273° |
| 2026-05-05 17:23 | 41.47461 | 2.59106 | 2763 ft | 184 kts | 248° |
| 2026-05-05 17:24 | 41.46948 | 2.57573 | 2541 ft | 174 kts | 242° |
| 2026-05-05 17:24 | 41.46413 | 2.56234 | 2394 ft | 157 kts | 236° |
| 2026-05-05 17:24 | 41.45834 | 2.55009 | 2313 ft | 156 kts | 239° |
| 2026-05-05 17:24 | 41.45328 | 2.53726 | 2290 ft | 157 kts | 242° |
| 2026-05-05 17:25 | 41.44856 | 2.52416 | 2290 ft | 158 kts | 244° |
| 2026-05-05 17:25 | 41.44547 | 2.51529 | 2276 ft | 163 kts | 245° |
| 2026-05-05 17:25 | 41.43882 | 2.49585 | 2294 ft | 176 kts | 245° |
| 2026-05-05 17:25 | 41.43368 | 2.48066 | 2296 ft | 188 kts | 244° |
| 2026-05-05 17:26 | 41.42806 | 2.46445 | 2302 ft | 196 kts | 240° |
| 2026-05-05 17:26 | 41.41822 | 2.45218 | 2307 ft | 199 kts | 203° |
| 2026-05-05 17:26 | 41.40453 | 2.45043 | 2308 ft | 203 kts | 173° |
| 2026-05-05 17:26 | 41.39068 | 2.45410 | 2305 ft | 204 kts | 173° |
| 2026-05-05 17:27 | 41.37661 | 2.45662 | 2296 ft | 204 kts | 175° |
| 2026-05-05 17:27 | 41.36250 | 2.45870 | 2298 ft | 204 kts | 176° |
| 2026-05-05 17:27 | 41.34843 | 2.46135 | 2297 ft | 206 kts | 164° |
| 2026-05-05 17:27 | 41.33769 | 2.47399 | 2785 ft | 216 kts | 116° |
| 2026-05-05 17:28 | 41.33640 | 2.49386 | 3429 ft | 227 kts | 74° |
| 2026-05-05 17:28 | 41.34483 | 2.51245 | 3715 ft | 242 kts | 48° |
| 2026-05-05 17:28 | 41.35599 | 2.52951 | 3930 ft | 246 kts | 48° |
| 2026-05-05 17:28 | 41.36712 | 2.54651 | 3999 ft | 247 kts | 48° |
| 2026-05-05 17:29 | 41.37841 | 2.56372 | 4017 ft | 244 kts | 49° |
| 2026-05-05 17:29 | 41.39035 | 2.57850 | 3991 ft | 229 kts | 27° |
| 2026-05-05 17:29 | 41.40490 | 2.58611 | 3813 ft | 223 kts | 15° |
| 2026-05-05 17:29 | 41.41969 | 2.59175 | 3511 ft | 220 kts | 13° |
| 2026-05-05 17:30 | 41.43457 | 2.59567 | 3134 ft | 216 kts | 354° |
| 2026-05-05 17:30 | 41.44828 | 2.58951 | 2756 ft | 207 kts | 318° |
| 2026-05-05 17:30 | 41.45613 | 2.57439 | 2386 ft | 198 kts | 281° |
| 2026-05-05 17:30 | 41.45666 | 2.55632 | 2296 ft | 197 kts | 261° |
| 2026-05-05 17:31 | 41.45320 | 2.53860 | 2302 ft | 198 kts | 245° |
| 2026-05-05 17:31 | 41.44753 | 2.52185 | 2298 ft | 199 kts | 246° |
| 2026-05-05 17:31 | 41.44186 | 2.50496 | 2298 ft | 199 kts | 245° |
| 2026-05-05 17:31 | 41.43620 | 2.48815 | 2299 ft | 199 kts | 245° |
| 2026-05-05 17:32 | 41.43054 | 2.47137 | 2303 ft | 198 kts | 245° |
| 2026-05-05 17:32 | 41.42488 | 2.45458 | 2304 ft | 199 kts | 245° |
| 2026-05-05 17:32 | 41.41920 | 2.43775 | 2304 ft | 199 kts | 245° |
| 2026-05-05 17:32 | 41.41352 | 2.42096 | 2307 ft | 199 kts | 245° |
| 2026-05-05 17:33 | 41.40782 | 2.40409 | 2314 ft | 199 kts | 245° |
| 2026-05-05 17:33 | 41.40214 | 2.38730 | 2310 ft | 199 kts | 245° |
| 2026-05-05 17:33 | 41.39646 | 2.37052 | 2311 ft | 199 kts | 246° |
| 2026-05-05 17:33 | 41.39078 | 2.35373 | 2312 ft | 199 kts | 246° |
| 2026-05-05 17:34 | 41.38509 | 2.33694 | 2301 ft | 198 kts | 246° |
| 2026-05-05 17:34 | 41.37940 | 2.32018 | 2303 ft | 199 kts | 245° |
| 2026-05-05 17:34 | 41.37372 | 2.30343 | 2308 ft | 198 kts | 245° |
| 2026-05-05 17:34 | 41.36803 | 2.28667 | 2309 ft | 199 kts | 245° |
| 2026-05-05 17:35 | 41.36247 | 2.27028 | 2319 ft | 187 kts | 245° |
| 2026-05-05 17:35 | 41.35721 | 2.25482 | 2306 ft | 180 kts | 245° |
| 2026-05-05 17:35 | 41.35205 | 2.23964 | 2193 ft | 179 kts | 246° |
| 2026-05-05 17:35 | 41.34691 | 2.22454 | 1991 ft | 178 kts | 246° |
| 2026-05-05 17:36 | 41.34196 | 2.21001 | 1782 ft | 165 kts | 246° |
| 2026-05-05 17:36 | 41.33742 | 2.19667 | 1550 ft | 150 kts | 246° |
| 2026-05-05 17:36 | 41.33337 | 2.18479 | 1374 ft | 139 kts | 246° |
| 2026-05-05 17:36 | 41.32943 | 2.17322 | 1181 ft | 136 kts | 245° |
| 2026-05-05 17:37 | 41.32550 | 2.16170 | 999 ft | 136 kts | 246° |
| 2026-05-05 17:37 | 41.32285 | 2.15393 | 861 ft | 137 kts | 245° |
| 2026-05-05 17:37 | 41.31768 | 2.13864 | 616 ft | 137 kts | 246° |
| 2026-05-05 17:37 | 41.31381 | 2.12712 | 450 ft | 136 kts | 244° |
| 2026-05-05 17:38 | 41.30975 | 2.11572 | 261 ft | 135 kts | 245° |
| 2026-05-05 17:38 | 41.30593 | 2.10426 | 86 ft | 135 kts | 244° |
| 2026-05-05 17:38 | 41.30231 | 2.09359 | 17 ft | 100 kts | 244° |
| 2026-05-05 17:38 | 41.30049 | 2.08841 | 19 ft | 46 kts | 244° |
| 2026-05-05 17:39 | 41.29872 | 2.08571 | 20 ft | 27 kts | 216° |
| 2026-05-05 17:39 | 41.29829 | 2.08528 | 21 ft | 0 kts | 217° |
| 2026-05-05 17:39 | 41.29768 | 2.08466 | 20 ft | 28 kts | 218° |
| 2026-05-05 17:39 | 41.29668 | 2.08282 | 17 ft | 21 kts | 247° |
| 2026-05-05 17:40 | 41.29566 | 2.08261 | 16 ft | 18 kts | 157° |
| 2026-05-05 17:40 | 41.29446 | 2.08332 | 15 ft | 20 kts | 156° |
| 2026-05-05 17:40 | 41.29311 | 2.08409 | 13 ft | 23 kts | 157° |
| 2026-05-05 17:40 | 41.29181 | 2.08482 | 14 ft | 10 kts | 195° |
| 2026-05-05 17:41 | 41.29141 | 2.08424 | 16 ft | 9 kts | 211° |
| 2026-05-05 17:41 | 41.29089 | 2.08396 | 17 ft | 8 kts | 199° |
| 2026-05-05 17:41 | 41.29034 | 2.08371 | 17 ft | 13 kts | 199° |
| 2026-05-05 17:41 | 41.28900 | 2.08309 | 18 ft | 22 kts | 198° |
| 2026-05-05 17:42 | 41.28775 | 2.08224 | 18 ft | 21 kts | 230° |
| 2026-05-05 17:42 | 41.28707 | 2.08043 | 17 ft | 22 kts | 244° |
| 2026-05-05 17:42 | 41.28635 | 2.07856 | 15 ft | 24 kts | 245° |
| 2026-05-05 17:42 | 41.28563 | 2.07647 | 15 ft | 25 kts | 245° |
| 2026-05-05 17:43 | 41.28522 | 2.07510 | 14 ft | 11 kts | 263° |
| 2026-05-05 17:43 | 41.28562 | 2.07447 | 14 ft | 9 kts | 344° |
| 2026-05-05 17:43 | 41.28605 | 2.07423 | 15 ft | 3 kts | 333° |